Time;durP1;ratioP1;P1;durP2;ratioP2;P2;SDS_P1;SDS_P2;PMS_P1;PMS_P2;Temp;Humidity;BMP_temperature;BMP_pressure;BME280_temperature;BME280_humidity;BME280_pressure;Samples;Min_cycle;Max_cycle;Signal;HPM_P1;HPM_P2
2022/07/02 00:00:51;;;;;;;9.52;3.03;;;14.60;99.90;;;;;;5012369;28;20057;-83
2022/07/02 00:03:42;;;;;;;6.90;3.03;;;14.60;99.90;;;;;;4982473;28;20050;-83
2022/07/02 00:06:37;;;;;;;9.85;3.05;;;14.60;99.90;;;;;;4997867;28;20065;-82
2022/07/02 00:09:27;;;;;;;8.25;3.20;;;14.50;99.90;;;;;;4982050;28;20112;-82
2022/07/02 00:12:14;;;;;;;7.82;2.88;;;14.50;99.90;;;;;;5014039;28;20049;-82
2022/07/02 00:15:00;;;;;;;8.98;2.90;;;14.40;99.90;;;;;;4999133;28;20061;-81
2022/07/02 00:17:47;;;;;;;8.43;2.92;;;14.40;99.90;;;;;;4982621;28;20068;-83
2022/07/02 00:20:33;;;;;;;9.23;3.65;;;14.40;99.90;;;;;;4995635;28;20502;-82
2022/07/02 00:23:20;;;;;;;6.68;2.25;;;14.40;99.90;;;;;;4982294;28;20054;-83
2022/07/02 00:26:16;;;;;;;5.45;2.05;;;14.30;99.90;;;;;;5011948;28;20050;-82
2022/07/02 00:29:16;;;;;;;7.20;2.40;;;14.30;99.90;;;;;;5014061;28;20409;-81
2022/07/02 00:32:04;;;;;;;6.88;2.38;;;14.30;99.90;;;;;;5015358;28;20136;-82
2022/07/02 00:34:51;;;;;;;11.18;3.20;;;14.40;99.90;;;;;;4995471;28;20058;-82
2022/07/02 00:37:37;;;;;;;11.63;2.80;;;14.30;99.90;;;;;;4994503;28;20056;-82
2022/07/02 00:40:25;;;;;;;7.55;2.30;;;14.30;99.90;;;;;;5011981;28;20104;-81
2022/07/02 00:43:11;;;;;;;6.28;2.25;;;14.30;99.90;;;;;;5010202;28;20050;-82
2022/07/02 00:46:00;;;;;;;7.03;2.80;;;14.30;99.90;;;;;;5010220;28;20453;-83
2022/07/02 00:48:46;;;;;;;6.10;2.97;;;14.30;99.90;;;;;;5011725;28;20564;-82
2022/07/02 00:51:33;;;;;;;9.27;2.50;;;14.30;99.90;;;;;;5013911;28;20097;-83
2022/07/02 00:54:19;;;;;;;8.85;2.75;;;14.20;99.90;;;;;;5011244;28;20049;-82
2022/07/02 00:57:06;;;;;;;6.30;2.50;;;14.20;99.90;;;;;;4996850;28;20061;-80
2022/07/02 00:59:53;;;;;;;8.43;2.70;;;14.20;99.90;;;;;;4994900;28;20049;-81
2022/07/02 01:02:45;;;;;;;7.03;2.85;;;14.20;99.90;;;;;;5011514;28;20161;-81
2022/07/02 01:05:32;;;;;;;5.47;2.30;;;14.10;99.90;;;;;;5010948;28;20398;-81
2022/07/02 01:11:26;;;;;;;8.90;2.75;;;14.00;99.90;;;;;;5011342;28;20061;-82
2022/07/02 01:14:16;;;;;;;5.22;2.05;;;14.00;99.90;;;;;;5012478;28;20460;-81
2022/07/02 01:17:02;;;;;;;5.57;2.50;;;14.00;99.90;;;;;;5014643;28;20042;-82
2022/07/02 01:19:49;;;;;;;7.25;2.45;;;13.90;99.90;;;;;;5013490;28;20097;-82
2022/07/02 01:22:40;;;;;;;6.05;2.90;;;13.90;99.90;;;;;;5012876;28;20413;-82
2022/07/02 01:25:26;;;;;;;6.03;2.70;;;13.90;99.90;;;;;;5011399;28;20490;-81
2022/07/02 01:28:12;;;;;;;8.07;2.75;;;13.90;99.90;;;;;;5011033;28;20053;-82
2022/07/02 01:30:58;;;;;;;7.03;2.78;;;13.80;99.90;;;;;;5013559;28;20148;-82
2022/07/02 01:33:44;;;;;;;8.43;3.28;;;13.80;99.90;;;;;;4980243;28;20045;-81
2022/07/02 01:36:30;;;;;;;10.20;3.13;;;13.80;99.90;;;;;;5009467;28;20100;-81
2022/07/02 01:39:23;;;;;;;10.80;3.20;;;13.70;99.90;;;;;;5011312;28;20050;-82
2022/07/02 01:42:10;;;;;;;8.52;3.05;;;13.70;99.90;;;;;;5011668;28;20049;-82
2022/07/02 01:44:56;;;;;;;8.40;3.00;;;13.70;99.90;;;;;;4995098;28;20054;-83
2022/07/02 01:47:42;;;;;;;6.30;2.75;;;13.60;99.90;;;;;;4994478;28;20054;-82
2022/07/02 01:50:28;;;;;;;9.60;2.78;;;13.60;99.90;;;;;;5011416;28;20073;-82
2022/07/02 01:53:14;;;;;;;7.70;2.85;;;13.60;99.90;;;;;;4996396;28;20058;-82
2022/07/02 01:56:00;;;;;;;7.68;2.72;;;13.50;99.90;;;;;;5010212;28;20046;-81
2022/07/02 01:58:47;;;;;;;5.68;2.85;;;13.50;99.90;;;;;;5011443;28;20049;-82
2022/07/02 02:01:33;;;;;;;5.70;2.97;;;13.50;99.90;;;;;;5011137;28;20107;-82
2022/07/02 02:04:19;;;;;;;6.28;2.80;;;13.50;99.90;;;;;;5011256;28;20056;-82
2022/07/02 02:07:06;;;;;;;7.55;3.15;;;13.40;99.90;;;;;;5015375;28;20096;-82
2022/07/02 02:09:53;;;;;;;7.32;2.78;;;13.40;99.90;;;;;;4996514;28;20053;-80
2022/07/02 02:12:39;;;;;;;7.93;2.78;;;13.40;99.90;;;;;;5015150;28;20050;-82
2022/07/02 02:15:25;;;;;;;6.55;2.72;;;13.40;99.90;;;;;;4996559;28;20058;-81
2022/07/02 02:18:11;;;;;;;7.28;3.00;;;13.40;99.90;;;;;;5014377;28;20773;-81
2022/07/02 02:20:58;;;;;;;5.88;2.55;;;13.40;99.90;;;;;;5001838;28;20053;-81
2022/07/02 02:23:44;;;;;;;7.20;2.83;;;13.40;99.90;;;;;;5014906;28;20050;-81
2022/07/02 02:26:30;;;;;;;7.63;2.88;;;13.40;99.90;;;;;;5014842;28;20057;-81
2022/07/02 02:29:16;;;;;;;9.60;3.10;;;13.40;99.90;;;;;;5014460;28;20100;-83
2022/07/02 02:32:03;;;;;;;12.82;3.63;;;13.40;99.90;;;;;;4999765;28;20141;-82
2022/07/02 02:34:49;;;;;;;11.27;3.97;;;13.30;99.90;;;;;;4996847;28;20053;-82
2022/07/02 02:37:35;;;;;;;8.48;3.58;;;13.30;99.90;;;;;;5015150;28;20112;-83
2022/07/02 02:40:21;;;;;;;9.73;3.53;;;13.30;99.90;;;;;;4983334;28;20487;-82
2022/07/02 02:43:07;;;;;;;5.57;3.10;;;13.30;99.90;;;;;;4997242;28;20766;-82
2022/07/02 02:45:53;;;;;;;11.98;3.58;;;13.30;99.90;;;;;;5018911;28;20045;-83
2022/07/02 02:48:40;;;;;;;9.75;3.85;;;13.30;99.90;;;;;;4998217;28;20046;-82
2022/07/02 02:51:26;;;;;;;11.45;3.70;;;13.30;99.90;;;;;;5014574;28;20149;-83
2022/07/02 02:54:12;;;;;;;8.73;3.42;;;13.30;99.90;;;;;;4997124;28;20045;-82
2022/07/02 02:56:58;;;;;;;7.38;3.67;;;13.30;99.90;;;;;;4996871;28;20521;-82
2022/07/02 02:59:44;;;;;;;10.35;4.00;;;13.30;99.90;;;;;;5013997;28;20255;-82
2022/07/02 03:02:30;;;;;;;8.63;3.70;;;13.40;99.90;;;;;;4999476;28;20390;-82
2022/07/02 03:05:16;;;;;;;9.52;3.90;;;13.40;99.90;;;;;;5014231;28;20053;-82
2022/07/02 03:08:02;;;;;;;12.23;3.80;;;13.30;99.90;;;;;;5012822;28;20109;-82
2022/07/02 03:10:50;;;;;;;11.23;4.03;;;13.30;99.90;;;;;;5001896;28;20065;-82
2022/07/02 03:13:36;;;;;;;11.68;5.03;;;13.40;99.90;;;;;;4995650;28;20052;-82
2022/07/02 03:16:22;;;;;;;13.00;4.47;;;13.30;99.90;;;;;;5013896;28;20049;-81
2022/07/02 03:19:08;;;;;;;8.70;3.90;;;13.30;99.90;;;;;;4995501;28;20137;-81
2022/07/02 03:21:54;;;;;;;5.97;3.83;;;13.30;99.90;;;;;;5013110;28;20045;-82
2022/07/02 03:24:41;;;;;;;9.70;4.55;;;13.30;99.90;;;;;;4996188;28;20089;-81
2022/07/02 03:27:27;;;;;;;10.57;4.07;;;13.30;99.90;;;;;;4986389;28;20137;-81
2022/07/02 03:30:13;;;;;;;12.13;4.00;;;13.30;99.90;;;;;;4996591;28;20084;-82
2022/07/02 03:32:59;;;;;;;11.52;4.40;;;13.30;99.90;;;;;;4995987;28;20498;-82
2022/07/02 03:35:46;;;;;;;10.77;4.35;;;13.40;99.90;;;;;;4997765;28;20441;-82
2022/07/02 03:38:32;;;;;;;13.65;4.45;;;13.40;99.90;;;;;;5013953;28;20046;-83
2022/07/02 03:41:18;;;;;;;12.18;5.43;;;13.40;99.90;;;;;;5013472;28;20062;-82
2022/07/02 03:44:04;;;;;;;9.75;5.28;;;13.40;99.90;;;;;;4994864;28;20139;-82
2022/07/02 03:46:50;;;;;;;12.63;4.93;;;13.40;99.90;;;;;;5012802;28;20391;-81
2022/07/02 03:49:36;;;;;;;11.98;4.57;;;13.40;99.90;;;;;;5013355;28;20081;-82
2022/07/02 03:52:22;;;;;;;11.82;4.60;;;13.40;99.90;;;;;;5013080;28;20068;-84
2022/07/02 03:55:09;;;;;;;12.88;4.90;;;13.40;99.90;;;;;;5013049;28;20054;-81
2022/07/02 03:57:55;;;;;;;10.40;4.32;;;13.40;99.90;;;;;;5013915;28;20089;-82
2022/07/02 04:00:41;;;;;;;7.82;4.38;;;13.40;99.90;;;;;;5011543;28;20060;-82
2022/07/02 04:03:27;;;;;;;14.43;5.25;;;13.40;99.90;;;;;;4981502;28;20051;-83
2022/07/02 04:06:13;;;;;;;14.77;5.05;;;13.50;99.90;;;;;;4998418;28;20103;-83
2022/07/02 04:08:59;;;;;;;9.82;4.78;;;13.50;99.90;;;;;;4997312;28;20061;-82
2022/07/02 04:11:45;;;;;;;9.13;5.68;;;13.50;99.90;;;;;;5014359;28;20053;-82
2022/07/02 04:14:32;;;;;;;13.95;5.28;;;13.50;99.90;;;;;;4995696;28;20045;-81
2022/07/02 04:17:18;;;;;;;13.77;5.95;;;13.50;99.90;;;;;;5012971;28;20058;-82
2022/07/02 04:20:06;;;;;;;13.50;6.15;;;13.60;99.90;;;;;;5012607;28;20544;-83
2022/07/02 04:22:52;;;;;;;10.98;5.63;;;13.60;99.90;;;;;;4994998;28;20053;-84
2022/07/02 04:25:38;;;;;;;13.02;6.28;;;13.70;99.90;;;;;;4995146;28;20073;-84
2022/07/02 04:28:25;;;;;;;12.50;5.50;;;13.70;99.90;;;;;;5011646;28;20409;-83
2022/07/02 04:31:11;;;;;;;11.43;5.30;;;13.70;99.90;;;;;;4995355;28;20054;-83
2022/07/02 04:33:58;;;;;;;14.77;5.45;;;13.80;99.90;;;;;;5013655;28;20049;-82
2022/07/02 04:36:44;;;;;;;12.77;6.50;;;13.80;99.90;;;;;;4995003;28;20053;-85
2022/07/02 04:39:30;;;;;;;13.32;5.30;;;13.80;99.90;;;;;;4995450;28;20066;-83
2022/07/02 04:42:16;;;;;;;10.23;5.43;;;13.90;99.90;;;;;;5012510;28;20046;-84
2022/07/02 04:45:03;;;;;;;8.60;5.32;;;13.90;99.90;;;;;;4994826;28;20516;-84
2022/07/02 04:47:49;;;;;;;11.02;5.70;;;14.00;99.90;;;;;;4996897;28;20054;-83
2022/07/02 04:50:35;;;;;;;12.63;5.10;;;14.00;99.90;;;;;;5012396;28;20087;-83
2022/07/02 04:53:21;;;;;;;11.20;5.85;;;14.10;99.90;;;;;;4996773;28;20050;-81
2022/07/02 04:56:07;;;;;;;8.52;4.35;;;14.10;99.90;;;;;;5015722;28;20050;-82
2022/07/02 04:58:54;;;;;;;17.55;5.47;;;14.20;99.90;;;;;;5015558;28;20080;-81
2022/07/02 05:01:41;;;;;;;12.35;5.03;;;14.20;99.90;;;;;;4995047;28;20136;-84
2022/07/02 05:04:27;;;;;;;11.85;4.78;;;14.30;99.90;;;;;;4993490;28;20168;-83
2022/07/02 05:07:13;;;;;;;9.20;4.97;;;14.40;99.90;;;;;;5010394;28;20497;-82
2022/07/02 05:09:59;;;;;;;12.43;4.65;;;14.50;99.90;;;;;;4994388;28;20058;-81
2022/07/02 05:12:45;;;;;;;15.60;5.45;;;14.50;99.90;;;;;;5012560;28;20410;-81
2022/07/02 05:15:31;;;;;;;11.57;4.97;;;14.60;99.90;;;;;;4994854;28;20076;-84
2022/07/02 05:18:18;;;;;;;12.30;4.57;;;14.70;99.90;;;;;;4993913;28;20057;-83
2022/07/02 05:21:05;;;;;;;17.88;5.18;;;14.70;99.90;;;;;;4992979;28;20781;-82
2022/07/02 05:23:51;;;;;;;13.60;4.07;;;14.80;99.90;;;;;;5009885;28;20061;-82
2022/07/02 05:26:37;;;;;;;13.18;4.38;;;14.90;99.90;;;;;;4994329;28;20053;-82
2022/07/02 05:29:23;;;;;;;10.65;3.92;;;15.00;99.90;;;;;;5011169;28;20042;-83
2022/07/02 05:32:09;;;;;;;10.52;4.00;;;15.10;99.90;;;;;;4997253;28;20049;-82
2022/07/02 05:34:56;;;;;;;10.50;4.22;;;15.20;99.90;;;;;;4996606;28;20054;-84
2022/07/02 05:37:42;;;;;;;13.73;4.05;;;15.30;99.90;;;;;;5012151;28;20469;-82
2022/07/02 05:40:28;;;;;;;8.98;3.78;;;15.40;99.90;;;;;;5010346;28;20054;-82
2022/07/02 05:43:14;;;;;;;6.97;3.45;;;15.60;99.90;;;;;;4998041;28;20194;-81
2022/07/02 05:46:01;;;;;;;10.70;3.88;;;15.60;99.90;;;;;;4985355;28;20522;-81
2022/07/02 05:48:47;;;;;;;12.15;3.42;;;15.70;99.90;;;;;;5014222;28;20120;-82
2022/07/02 05:51:33;;;;;;;13.13;3.97;;;15.90;99.90;;;;;;5013770;28;20068;-81
2022/07/02 05:54:19;;;;;;;9.82;4.53;;;16.00;99.90;;;;;;5013628;28;20373;-80
2022/07/02 05:57:05;;;;;;;11.15;3.53;;;16.10;99.90;;;;;;5014546;28;20496;-81
2022/07/02 05:59:51;;;;;;;8.32;3.70;;;16.20;99.90;;;;;;4999238;28;20141;-81
2022/07/02 06:02:37;;;;;;;9.20;3.30;;;16.30;99.90;;;;;;5016267;28;20054;-81
2022/07/02 06:08:28;;;;;;;8.50;3.00;;;16.60;99.90;;;;;;5015269;28;20054;-82
2022/07/02 06:11:14;;;;;;;9.35;2.80;;;16.80;99.90;;;;;;4997575;28;20064;-84
2022/07/02 06:14:00;;;;;;;6.80;2.40;;;16.90;99.90;;;;;;5013986;28;20065;-85
2022/07/02 06:16:46;;;;;;;9.63;2.30;;;17.00;99.90;;;;;;4995629;28;20136;-85
2022/07/02 06:19:33;;;;;;;8.32;2.67;;;17.10;99.90;;;;;;5015445;28;20085;-84
2022/07/02 06:22:19;;;;;;;8.32;1.95;;;17.20;99.90;;;;;;4999807;28;20120;-83
2022/07/02 06:25:07;;;;;;;6.65;2.13;;;17.30;99.90;;;;;;5015467;28;20046;-84
2022/07/02 06:27:53;;;;;;;9.13;2.10;;;17.30;99.90;;;;;;5014045;28;20045;-83
2022/07/02 06:30:39;;;;;;;6.13;2.40;;;17.50;99.90;;;;;;5014167;28;20063;-84
2022/07/02 06:33:25;;;;;;;7.72;2.33;;;17.60;99.90;;;;;;4984220;28;20107;-83
2022/07/02 06:36:14;;;;;;;5.38;1.88;;;17.70;99.90;;;;;;4999406;28;20433;-84
2022/07/02 06:39:01;;;;;;;8.65;1.60;;;17.80;99.90;;;;;;5001473;28;20136;-83
2022/07/02 06:44:54;;;;;;;5.43;1.70;;;18.00;99.90;;;;;;5019590;28;20587;-84
2022/07/02 06:47:41;;;;;;;11.07;2.17;;;18.20;99.90;;;;;;5017305;28;20300;-84
2022/07/02 06:50:27;;;;;;;7.20;2.13;;;18.40;99.90;;;;;;4996786;28;20485;-83
2022/07/02 06:53:15;;;;;;;7.35;2.03;;;18.40;99.90;;;;;;5014123;28;20133;-86
2022/07/02 06:56:01;;;;;;;12.25;1.88;;;18.50;99.90;;;;;;5014058;28;20409;-84
2022/07/02 06:58:47;;;;;;;9.40;1.73;;;18.70;99.90;;;;;;5013440;28;20501;-81
2022/07/02 07:01:34;;;;;;;4.88;1.58;;;18.70;99.90;;;;;;5016493;28;20046;-80
2022/07/02 07:04:20;;;;;;;5.70;1.30;;;18.80;99.90;;;;;;5014829;28;20490;-80
2022/07/02 07:07:08;;;;;;;9.15;1.80;;;19.00;99.90;;;;;;4999742;28;20081;-81
2022/07/02 07:09:55;;;;;;;6.00;1.55;;;19.00;99.90;;;;;;5015065;28;20061;-81
2022/07/02 07:12:41;;;;;;;6.88;1.40;;;19.00;99.90;;;;;;4999821;28;20112;-80
2022/07/02 07:15:27;;;;;;;6.13;1.50;;;19.10;99.90;;;;;;4996202;28;20045;-80
2022/07/02 07:18:13;;;;;;;8.07;2.00;;;19.30;99.90;;;;;;5012877;28;20502;-81
2022/07/02 07:20:59;;;;;;;6.35;1.10;;;19.30;99.90;;;;;;4995851;28;20090;-80
2022/07/02 07:23:45;;;;;;;7.07;1.40;;;19.40;99.90;;;;;;4998472;28;20521;-81
2022/07/02 07:26:32;;;;;;;4.03;0.82;;;19.60;99.90;;;;;;4999409;28;20057;-82
2022/07/02 07:29:18;;;;;;;5.47;1.23;;;19.50;99.90;;;;;;4996772;28;20151;-84
2022/07/02 07:32:05;;;;;;;8.05;1.83;;;19.50;99.90;;;;;;5014554;28;20065;-81
2022/07/02 07:34:51;;;;;;;4.30;0.80;;;19.70;99.90;;;;;;4996020;28;20089;-84
2022/07/02 07:37:37;;;;;;;5.93;1.27;;;19.90;99.90;;;;;;4996418;28;20046;-84
2022/07/02 07:40:24;;;;;;;4.68;0.93;;;19.90;99.90;;;;;;4995747;28;20057;-82
2022/07/02 07:43:10;;;;;;;7.55;1.63;;;19.90;99.90;;;;;;5013343;28;20540;-84
2022/07/02 07:45:56;;;;;;;5.40;1.05;;;20.00;99.90;;;;;;4998974;28;20045;-83
2022/07/02 07:48:42;;;;;;;6.13;1.75;;;19.90;99.90;;;;;;5012350;28;20046;-82
2022/07/02 07:51:28;;;;;;;4.55;1.02;;;20.10;99.90;;;;;;5011409;28;20112;-83
2022/07/02 07:54:14;;;;;;;4.40;0.90;;;19.60;99.90;;;;;;5013005;28;20057;-84
2022/07/02 07:57:00;;;;;;;4.50;0.80;;;19.60;99.90;;;;;;4997482;28;20053;-85
2022/07/02 07:59:46;;;;;;;4.68;1.45;;;19.50;99.90;;;;;;5010977;28;20054;-86
2022/07/02 08:02:32;;;;;;;8.82;1.20;;;19.70;99.90;;;;;;4982298;28;20080;-84
2022/07/02 08:05:19;;;;;;;4.45;0.98;;;19.80;99.90;;;;;;4999799;28;20123;-84
2022/07/02 08:08:07;;;;;;;3.25;0.70;;;20.10;99.90;;;;;;4998062;28;20053;-83
2022/07/02 08:10:53;;;;;;;6.53;1.15;;;20.30;99.90;;;;;;5012765;28;20054;-81
2022/07/02 08:13:39;;;;;;;7.32;1.00;;;20.60;99.90;;;;;;5012714;28;20049;-84
2022/07/02 08:16:26;;;;;;;4.13;0.93;;;20.70;99.90;;;;;;5011997;28;20493;-82
2022/07/02 08:19:12;;;;;;;14.93;1.75;;;20.80;99.90;;;;;;4995099;28;20493;-83
2022/07/02 08:21:58;;;;;;;4.35;1.35;;;20.90;99.90;;;;;;5011731;28;20041;-82
2022/07/02 08:24:44;;;;;;;6.13;1.20;;;20.70;99.90;;;;;;4995917;28;20046;-83
2022/07/02 08:27:30;;;;;;;4.93;0.95;;;20.90;99.90;;;;;;5012560;28;20413;-82
2022/07/02 08:30:17;;;;;;;5.32;0.80;;;21.20;99.90;;;;;;4997822;28;20172;-85
2022/07/02 08:33:03;;;;;;;3.33;0.60;;;21.40;99.90;;;;;;4998191;28;20139;-82
2022/07/02 08:35:50;;;;;;;4.13;0.90;;;21.70;99.90;;;;;;5012585;28;20046;-82
2022/07/02 08:38:36;;;;;;;3.45;1.27;;;21.80;99.00;;;;;;4997515;28;20104;-82
2022/07/02 08:41:23;;;;;;;2.38;0.60;;;21.80;99.40;;;;;;4980914;28;20050;-83
2022/07/02 08:44:11;;;;;;;5.20;0.80;;;21.90;98.80;;;;;;5011998;28;20133;-80
2022/07/02 08:46:58;;;;;;;3.38;0.73;;;22.00;98.20;;;;;;4994439;28;20502;-81
2022/07/02 08:49:47;;;;;;;2.50;0.50;;;21.90;98.10;;;;;;5013540;28;20510;-86
2022/07/02 08:52:33;;;;;;;3.42;0.65;;;22.00;97.80;;;;;;5010775;28;20106;-82
2022/07/02 08:55:21;;;;;;;4.28;1.17;;;22.20;97.70;;;;;;4997534;28;20056;-86
2022/07/02 08:58:09;;;;;;;4.10;0.77;;;22.10;97.60;;;;;;4995093;28;20050;-81
2022/07/02 09:00:56;;;;;;;3.08;0.50;;;22.40;97.10;;;;;;5010566;28;20041;-83
2022/07/02 09:03:44;;;;;;;4.10;0.68;;;22.40;96.80;;;;;;5009729;28;20530;-81
2022/07/02 09:06:36;;;;;;;3.85;0.70;;;22.50;95.80;;;;;;4999423;28;20049;-81
2022/07/02 09:09:23;;;;;;;4.20;0.68;;;22.10;95.80;;;;;;4994478;28;20053;-81
2022/07/02 09:12:11;;;;;;;3.97;0.85;;;22.10;96.40;;;;;;5010413;28;20890;-80
2022/07/02 09:14:58;;;;;;;5.35;0.98;;;22.00;95.70;;;;;;5010731;28;20461;-82
2022/07/02 09:17:45;;;;;;;7.43;0.65;;;22.30;96.20;;;;;;4997042;28;20060;-82
2022/07/02 09:20:31;;;;;;;3.90;0.82;;;22.80;95.60;;;;;;4997033;28;20050;-82
2022/07/02 09:23:22;;;;;;;5.47;1.00;;;22.90;96.00;;;;;;4980368;28;20085;-81
2022/07/02 09:26:23;;;;;;;4.63;0.65;;;22.70;95.20;;;;;;5011475;28;20069;-84
2022/07/02 09:29:09;;;;;;;3.20;0.90;;;22.50;95.20;;;;;;5012709;28;20522;-82
2022/07/02 09:31:56;;;;;;;4.22;0.82;;;22.40;96.50;;;;;;5011570;28;20049;-82
2022/07/02 09:34:47;;;;;;;3.40;0.57;;;21.80;96.20;;;;;;5012150;28;20418;-83
2022/07/02 09:37:33;;;;;;;5.68;1.15;;;21.90;96.30;;;;;;5012041;28;20046;-82
2022/07/02 09:40:20;;;;;;;3.85;0.60;;;22.50;96.80;;;;;;5011687;28;20057;-84
2022/07/02 09:43:06;;;;;;;2.42;0.50;;;22.70;95.60;;;;;;4993968;28;20053;-81
2022/07/02 09:45:52;;;;;;;5.65;0.70;;;22.50;95.30;;;;;;4995961;28;20050;-81
2022/07/02 09:48:38;;;;;;;3.30;1.10;;;22.10;94.50;;;;;;5009754;28;20073;-81
2022/07/02 09:51:25;;;;;;;2.95;0.88;;;22.00;94.80;;;;;;4993603;28;20057;-81
2022/07/02 09:54:24;;;;;;;3.10;0.90;;;21.70;95.50;;;;;;4993519;28;20057;-81
2022/07/02 09:57:12;;;;;;;2.80;0.98;;;22.10;95.70;;;;;;4992084;28;20432;-82
2022/07/02 10:00:06;;;;;;;4.05;0.80;;;22.50;94.50;;;;;;5011216;28;20085;-82
2022/07/02 10:02:54;;;;;;;4.47;0.65;;;22.80;95.20;;;;;;5011720;28;20046;-82
2022/07/02 10:05:45;;;;;;;3.22;0.75;;;23.00;94.60;;;;;;4994899;28;20046;-82
2022/07/02 10:08:32;;;;;;;2.53;0.70;;;23.20;94.40;;;;;;5011599;28;20046;-81
2022/07/02 10:11:18;;;;;;;4.38;1.10;;;23.10;93.00;;;;;;4980105;28;20512;-82
2022/07/02 10:14:07;;;;;;;3.30;0.60;;;23.30;93.00;;;;;;5012239;28;20100;-83
2022/07/02 10:16:54;;;;;;;2.88;0.55;;;23.50;93.30;;;;;;4993018;28;20054;-84
2022/07/02 10:19:41;;;;;;;7.07;0.70;;;23.70;92.80;;;;;;4993292;28;20054;-82
2022/07/02 10:22:28;;;;;;;4.63;0.80;;;23.90;92.50;;;;;;5011549;28;20069;-82
2022/07/02 10:25:16;;;;;;;6.25;0.90;;;23.70;93.10;;;;;;4996788;28;20041;-82
2022/07/02 10:28:02;;;;;;;4.15;1.00;;;23.60;94.20;;;;;;5015505;28;20088;-82
2022/07/02 10:30:49;;;;;;;4.15;0.90;;;23.80;93.90;;;;;;5015601;28;20091;-83
2022/07/02 10:33:44;;;;;;;3.15;0.57;;;23.30;93.60;;;;;;4983577;28;20104;-81
2022/07/02 10:36:32;;;;;;;3.83;0.75;;;23.40;93.60;;;;;;5014717;28;20057;-82
2022/07/02 10:39:19;;;;;;;4.22;0.70;;;23.60;94.70;;;;;;5014875;28;20050;-84
2022/07/02 10:42:05;;;;;;;3.85;0.80;;;23.70;93.80;;;;;;4983562;28;20081;-84
2022/07/02 10:44:51;;;;;;;7.38;1.10;;;23.90;93.20;;;;;;4998811;28;20046;-83
2022/07/02 10:47:51;;;;;;;4.15;1.05;;;23.90;93.10;;;;;;4997366;28;20054;-81
2022/07/02 10:50:45;;;;;;;3.85;0.85;;;23.60;92.40;;;;;;5016623;28;20054;-82
2022/07/02 10:53:34;;;;;;;2.50;0.90;;;23.80;92.40;;;;;;5016635;28;20057;-82
2022/07/02 10:56:21;;;;;;;6.00;0.80;;;23.60;92.60;;;;;;5015662;28;20057;-83
2022/07/02 10:59:34;;;;;;;2.15;0.65;;;23.50;93.80;;;;;;5015132;28;20490;-84
2022/07/02 11:02:21;;;;;;;5.88;0.82;;;23.70;93.60;;;;;;5015496;28;20089;-82
2022/07/02 11:05:13;;;;;;;3.65;0.82;;;23.30;93.20;;;;;;5015587;28;20046;-81
2022/07/02 11:07:59;;;;;;;2.42;0.63;;;23.30;93.40;;;;;;5014899;28;20050;-81
2022/07/02 11:10:48;;;;;;;3.03;0.77;;;23.20;94.10;;;;;;5000545;28;20101;-81
2022/07/02 11:13:49;;;;;;;4.45;1.02;;;23.00;94.30;;;;;;4998589;28;20056;-82
2022/07/02 11:16:49;;;;;;;5.10;0.65;;;23.00;93.80;;;;;;5015388;28;20045;-82
2022/07/02 11:19:36;;;;;;;2.75;0.98;;;23.10;94.30;;;;;;4999290;28;20073;-82
2022/07/02 11:22:22;;;;;;;1.83;0.60;;;22.80;93.90;;;;;;5012882;28;20084;-84
2022/07/02 11:25:09;;;;;;;5.47;0.85;;;22.80;94.40;;;;;;4996221;28;20077;-84
2022/07/02 11:28:00;;;;;;;2.55;0.63;;;22.50;93.90;;;;;;5013283;28;20057;-83
2022/07/02 11:30:56;;;;;;;5.20;1.00;;;22.30;94.40;;;;;;5004885;28;20127;-84
2022/07/02 11:33:45;;;;;;;3.17;0.88;;;22.20;93.50;;;;;;4997001;28;20049;-84
2022/07/02 11:36:31;;;;;;;2.72;0.77;;;22.30;94.20;;;;;;5001321;28;20168;-82
2022/07/02 11:39:20;;;;;;;6.53;0.82;;;22.40;94.60;;;;;;5003521;28;20046;-84
2022/07/02 11:42:06;;;;;;;2.47;0.77;;;22.40;94.70;;;;;;5000967;28;20463;-83
2022/07/02 11:44:59;;;;;;;3.15;0.55;;;22.40;95.10;;;;;;5016092;28;20053;-81
2022/07/02 11:47:47;;;;;;;3.65;0.70;;;22.60;95.10;;;;;;5015738;28;20050;-81
2022/07/02 11:50:35;;;;;;;3.40;0.57;;;22.60;94.30;;;;;;5015329;28;20049;-83
2022/07/02 11:53:22;;;;;;;5.82;0.90;;;23.10;93.90;;;;;;5011791;28;20553;-81
2022/07/02 11:56:11;;;;;;;3.13;0.55;;;23.20;93.20;;;;;;5012482;28;20042;-83
2022/07/02 11:58:57;;;;;;;5.72;0.82;;;23.60;93.80;;;;;;5013052;28;20133;-83
2022/07/02 12:01:44;;;;;;;4.15;0.80;;;23.80;93.10;;;;;;5011894;28;20568;-83
2022/07/02 12:04:31;;;;;;;2.75;0.60;;;23.90;92.80;;;;;;5011635;28;20517;-85
2022/07/02 12:07:17;;;;;;;5.75;1.00;;;23.60;92.10;;;;;;5012770;28;20557;-81
2022/07/02 12:10:03;;;;;;;4.28;0.88;;;23.40;91.90;;;;;;5013231;28;20414;-83
2022/07/02 12:12:49;;;;;;;3.35;0.70;;;23.30;92.50;;;;;;5011905;28;20054;-83
2022/07/02 12:15:49;;;;;;;6.88;1.13;;;23.60;92.80;;;;;;5011107;28;20089;-83
2022/07/02 12:18:36;;;;;;;5.72;0.70;;;24.00;92.00;;;;;;5011723;28;20072;-85
2022/07/02 12:21:28;;;;;;;3.22;0.45;;;24.10;91.60;;;;;;5011530;28;20139;-83
2022/07/02 12:24:28;;;;;;;4.93;0.70;;;23.90;90.90;;;;;;4994645;28;20058;-81
2022/07/02 12:27:14;;;;;;;3.50;0.65;;;23.60;90.80;;;;;;4983529;28;20053;-83
2022/07/02 12:30:13;;;;;;;4.30;0.98;;;23.50;91.60;;;;;;5012543;28;20422;-82
2022/07/02 12:32:59;;;;;;;2.55;0.40;;;23.50;92.30;;;;;;4994227;28;20069;-82
2022/07/02 12:35:45;;;;;;;2.28;0.60;;;23.90;92.30;;;;;;4981079;28;20150;-84
2022/07/02 12:38:44;;;;;;;4.30;0.80;;;23.80;91.80;;;;;;4981497;28;20053;-84
2022/07/02 12:41:38;;;;;;;2.75;0.47;;;23.60;92.00;;;;;;4994753;28;20068;-83
2022/07/02 12:44:24;;;;;;;3.40;0.60;;;23.20;92.30;;;;;;5014093;28;20054;-81
2022/07/02 12:47:10;;;;;;;4.05;0.68;;;23.40;92.70;;;;;;5011202;28;20081;-81
2022/07/02 12:50:11;;;;;;;2.10;0.63;;;23.70;92.20;;;;;;4993326;28;20052;-85
2022/07/02 12:53:07;;;;;;;5.18;0.73;;;24.00;91.90;;;;;;4990096;28;20062;-83
2022/07/02 12:55:55;;;;;;;4.93;0.75;;;24.10;91.10;;;;;;4964469;28;20137;-83
2022/07/02 12:58:42;;;;;;;2.60;0.55;;;24.10;91.50;;;;;;4992225;28;20152;-85
2022/07/02 13:01:28;;;;;;;1.85;0.60;;;24.40;90.80;;;;;;4992387;28;20378;-82
2022/07/02 13:04:14;;;;;;;5.07;0.90;;;24.70;90.20;;;;;;4995280;28;20054;-82
2022/07/02 13:07:20;;;;;;;2.47;0.60;;;25.00;90.20;;;;;;4992166;28;20069;-82
2022/07/02 13:10:07;;;;;;;5.47;0.90;;;25.20;86.90;;;;;;4991160;28;20069;-82
2022/07/02 13:12:53;;;;;;;3.92;0.70;;;25.20;85.80;;;;;;4990409;28;20046;-83
2022/07/02 13:15:40;;;;;;;2.22;0.70;;;25.30;87.80;;;;;;4977753;28;20058;-82
2022/07/02 13:18:26;;;;;;;3.08;0.68;;;25.40;84.50;;;;;;4991113;28;20145;-83
2022/07/02 13:21:12;;;;;;;5.85;0.80;;;25.40;87.30;;;;;;4992639;28;20483;-82
2022/07/02 13:23:58;;;;;;;4.60;0.80;;;25.10;86.20;;;;;;4993260;28;20047;-83
2022/07/02 13:26:44;;;;;;;3.90;0.93;;;25.00;86.10;;;;;;4978039;28;20112;-83
2022/07/02 13:29:30;;;;;;;2.38;0.57;;;25.00;85.50;;;;;;4990923;28;20057;-81
2022/07/02 13:32:17;;;;;;;2.03;0.43;;;25.20;85.60;;;;;;4991263;28;20367;-83
2022/07/02 13:35:05;;;;;;;1.52;0.40;;;25.50;88.30;;;;;;4992995;28;20054;-81
2022/07/02 13:37:51;;;;;;;2.50;0.60;;;25.60;82.70;;;;;;4991072;28;20077;-81
2022/07/02 13:40:37;;;;;;;1.65;0.50;;;26.00;84.80;;;;;;4992292;28;20050;-83
2022/07/02 13:43:23;;;;;;;5.07;1.13;;;26.20;80.80;;;;;;4991963;28;20054;-85
2022/07/02 13:46:09;;;;;;;3.85;1.08;;;25.70;78.00;;;;;;4991784;28;20054;-82
2022/07/02 13:48:55;;;;;;;1.85;0.50;;;25.80;78.10;;;;;;4992264;28;20051;-83
2022/07/02 13:51:42;;;;;;;2.47;0.77;;;25.40;75.70;;;;;;4963837;28;20065;-85
2022/07/02 13:54:28;;;;;;;2.15;0.50;;;25.00;77.40;;;;;;4981409;28;20118;-83
2022/07/02 13:57:18;;;;;;;2.67;0.63;;;25.90;81.70;;;;;;4992012;28;20380;-83
2022/07/02 14:00:06;;;;;;;2.15;0.70;;;25.90;78.90;;;;;;4991336;28;20057;-84
2022/07/02 14:02:52;;;;;;;2.03;0.40;;;26.50;76.90;;;;;;4996280;28;20054;-82
2022/07/02 14:05:38;;;;;;;4.20;0.50;;;26.90;72.80;;;;;;4995825;28;20050;-84
2022/07/02 14:08:24;;;;;;;1.58;0.30;;;27.20;73.60;;;;;;4995857;28;20050;-83
2022/07/02 14:11:11;;;;;;;2.72;0.65;;;27.90;67.20;;;;;;4994397;28;20427;-82
2022/07/02 14:13:57;;;;;;;2.47;0.30;;;28.50;69.50;;;;;;4995788;28;20053;-84
2022/07/02 14:16:44;;;;;;;1.67;0.52;;;28.70;69.20;;;;;;4994059;28;20132;-82
2022/07/02 14:19:31;;;;;;;3.55;0.50;;;27.90;64.70;;;;;;4992491;28;20056;-81
2022/07/02 14:22:19;;;;;;;2.90;0.52;;;27.50;65.00;;;;;;4995243;28;20043;-83
2022/07/02 14:25:05;;;;;;;4.35;0.98;;;26.90;65.30;;;;;;4998035;28;20494;-82
2022/07/02 14:27:52;;;;;;;2.78;0.60;;;26.80;68.00;;;;;;4994233;28;20085;-82
2022/07/02 14:30:41;;;;;;;2.85;0.60;;;26.60;68.30;;;;;;4994844;28;20073;-82
2022/07/02 14:33:28;;;;;;;3.58;0.93;;;26.30;68.30;;;;;;4995359;28;20069;-82
2022/07/02 14:36:14;;;;;;;1.80;0.40;;;26.00;69.80;;;;;;4994364;28;20104;-82
2022/07/02 14:39:00;;;;;;;3.63;0.75;;;26.50;70.10;;;;;;4993919;28;20058;-83